sensor_id;sensor_type;location;lat;lon;timestamp;P1;durP1;ratioP1;P2;durP2;ratioP2
37955;SDS011;23776;51.592;7.180;2023-02-01T00:01:45;52.47;;;15.50;;
37955;SDS011;23776;51.592;7.180;2023-02-01T00:04:10;40.17;;;14.20;;
37955;SDS011;23776;51.592;7.180;2023-02-01T00:06:36;48.92;;;13.43;;
37955;SDS011;23776;51.592;7.180;2023-02-01T00:09:02;44.38;;;13.90;;
37955;SDS011;23776;51.592;7.180;2023-02-01T00:11:27;38.88;;;12.32;;
37955;SDS011;23776;51.592;7.180;2023-02-01T00:13:53;41.80;;;12.80;;
37955;SDS011;23776;51.592;7.180;2023-02-01T00:16:23;45.35;;;11.88;;
37955;SDS011;23776;51.592;7.180;2023-02-01T00:18:51;34.30;;;11.27;;
37955;SDS011;23776;51.592;7.180;2023-02-01T00:21:23;39.72;;;11.07;;
37955;SDS011;23776;51.592;7.180;2023-02-01T00:23:48;35.33;;;9.27;;
37955;SDS011;23776;51.592;7.180;2023-02-01T00:26:33;31.52;;;9.93;;
37955;SDS011;23776;51.592;7.180;2023-02-01T00:29:01;32.35;;;8.30;;
37955;SDS011;23776;51.592;7.180;2023-02-01T00:31:28;33.80;;;8.68;;
37955;SDS011;23776;51.592;7.180;2023-02-01T00:33:54;35.55;;;7.53;;
37955;SDS011;23776;51.592;7.180;2023-02-01T00:36:20;30.15;;;7.22;;
37955;SDS011;23776;51.592;7.180;2023-02-01T00:38:46;37.08;;;6.07;;
37955;SDS011;23776;51.592;7.180;2023-02-01T00:41:12;36.13;;;5.80;;
37955;SDS011;23776;51.592;7.180;2023-02-01T00:43:40;30.52;;;5.95;;
37955;SDS011;23776;51.592;7.180;2023-02-01T00:46:06;26.08;;;5.05;;
37955;SDS011;23776;51.592;7.180;2023-02-01T00:48:32;15.32;;;4.75;;
37955;SDS011;23776;51.592;7.180;2023-02-01T00:51:02;25.80;;;4.78;;
37955;SDS011;23776;51.592;7.180;2023-02-01T00:53:29;25.27;;;4.70;;
37955;SDS011;23776;51.592;7.180;2023-02-01T00:55:55;36.03;;;5.22;;
37955;SDS011;23776;51.592;7.180;2023-02-01T00:58:21;32.35;;;5.70;;
37955;SDS011;23776;51.592;7.180;2023-02-01T01:00:49;26.02;;;4.40;;
37955;SDS011;23776;51.592;7.180;2023-02-01T01:03:14;27.50;;;4.80;;
37955;SDS011;23776;51.592;7.180;2023-02-01T01:05:47;25.33;;;4.85;;
37955;SDS011;23776;51.592;7.180;2023-02-01T01:08:14;26.40;;;5.72;;
37955;SDS011;23776;51.592;7.180;2023-02-01T01:10:40;29.65;;;4.78;;
37955;SDS011;23776;51.592;7.180;2023-02-01T01:13:06;20.50;;;3.65;;
37955;SDS011;23776;51.592;7.180;2023-02-01T01:15:35;21.05;;;3.28;;
37955;SDS011;23776;51.592;7.180;2023-02-01T01:18:01;22.23;;;3.60;;
37955;SDS011;23776;51.592;7.180;2023-02-01T01:20:28;25.20;;;3.90;;
37955;SDS011;23776;51.592;7.180;2023-02-01T01:22:54;25.50;;;4.25;;
37955;SDS011;23776;51.592;7.180;2023-02-01T01:25:19;22.25;;;3.78;;
37955;SDS011;23776;51.592;7.180;2023-02-01T01:27:46;19.15;;;3.67;;
37955;SDS011;23776;51.592;7.180;2023-02-01T01:30:11;26.45;;;4.15;;
37955;SDS011;23776;51.592;7.180;2023-02-01T01:32:37;34.20;;;4.85;;
37955;SDS011;23776;51.592;7.180;2023-02-01T01:35:03;28.95;;;5.47;;
37955;SDS011;23776;51.592;7.180;2023-02-01T01:37:28;20.10;;;4.07;;
37955;SDS011;23776;51.592;7.180;2023-02-01T01:39:54;21.45;;;4.18;;
37955;SDS011;23776;51.592;7.180;2023-02-01T01:42:20;28.50;;;4.88;;
37955;SDS011;23776;51.592;7.180;2023-02-01T01:45:06;18.00;;;4.15;;
37955;SDS011;23776;51.592;7.180;2023-02-01T01:47:44;20.25;;;4.25;;
37955;SDS011;23776;51.592;7.180;2023-02-01T01:50:14;25.92;;;4.97;;
37955;SDS011;23776;51.592;7.180;2023-02-01T01:52:44;27.60;;;4.55;;
37955;SDS011;23776;51.592;7.180;2023-02-01T01:55:14;22.05;;;4.60;;
37955;SDS011;23776;51.592;7.180;2023-02-01T01:57:42;29.83;;;4.85;;
37955;SDS011;23776;51.592;7.180;2023-02-01T02:00:11;39.97;;;5.22;;
37955;SDS011;23776;51.592;7.180;2023-02-01T02:02:40;20.20;;;4.15;;
37955;SDS011;23776;51.592;7.180;2023-02-01T02:05:08;24.35;;;5.80;;
37955;SDS011;23776;51.592;7.180;2023-02-01T02:07:36;30.83;;;4.82;;
37955;SDS011;23776;51.592;7.180;2023-02-01T02:10:06;24.23;;;4.13;;
37955;SDS011;23776;51.592;7.180;2023-02-01T02:12:37;21.35;;;4.65;;
37955;SDS011;23776;51.592;7.180;2023-02-01T02:15:06;28.10;;;4.57;;
37955;SDS011;23776;51.592;7.180;2023-02-01T02:17:40;27.40;;;4.80;;
37955;SDS011;23776;51.592;7.180;2023-02-01T02:35:19;30.80;;;4.85;;
37955;SDS011;23776;51.592;7.180;2023-02-01T02:40:33;26.40;;;4.57;;
37955;SDS011;23776;51.592;7.180;2023-02-01T02:43:13;26.90;;;4.38;;
37955;SDS011;23776;51.592;7.180;2023-02-01T02:46:12;27.00;;;4.65;;
37955;SDS011;23776;51.592;7.180;2023-02-01T02:51:29;29.70;;;5.28;;
37955;SDS011;23776;51.592;7.180;2023-02-01T02:54:22;24.35;;;4.85;;
37955;SDS011;23776;51.592;7.180;2023-02-01T02:57:11;21.92;;;4.30;;
37955;SDS011;23776;51.592;7.180;2023-02-01T02:59:59;30.73;;;5.07;;
37955;SDS011;23776;51.592;7.180;2023-02-01T03:02:46;27.80;;;5.10;;
37955;SDS011;23776;51.592;7.180;2023-02-01T03:05:32;30.73;;;3.83;;
37955;SDS011;23776;51.592;7.180;2023-02-01T03:21:45;33.10;;;3.83;;
37955;SDS011;23776;51.592;7.180;2023-02-01T03:24:21;22.23;;;4.22;;
37955;SDS011;23776;51.592;7.180;2023-02-01T03:26:58;22.58;;;3.80;;
37955;SDS011;23776;51.592;7.180;2023-02-01T03:29:32;26.70;;;4.80;;
37955;SDS011;23776;51.592;7.180;2023-02-01T03:32:06;21.27;;;3.47;;
37955;SDS011;23776;51.592;7.180;2023-02-01T03:34:34;36.72;;;3.95;;
37955;SDS011;23776;51.592;7.180;2023-02-01T03:37:01;31.85;;;4.28;;
37955;SDS011;23776;51.592;7.180;2023-02-01T03:39:32;24.90;;;3.47;;
37955;SDS011;23776;51.592;7.180;2023-02-01T03:42:34;26.63;;;3.92;;
37955;SDS011;23776;51.592;7.180;2023-02-01T03:45:25;20.63;;;3.63;;
37955;SDS011;23776;51.592;7.180;2023-02-01T03:47:55;29.73;;;3.60;;
37955;SDS011;23776;51.592;7.180;2023-02-01T03:50:23;32.50;;;4.68;;
37955;SDS011;23776;51.592;7.180;2023-02-01T03:52:55;21.27;;;4.40;;
37955;SDS011;23776;51.592;7.180;2023-02-01T03:55:28;23.48;;;4.28;;
37955;SDS011;23776;51.592;7.180;2023-02-01T03:57:57;24.27;;;3.65;;
37955;SDS011;23776;51.592;7.180;2023-02-01T04:00:27;26.40;;;4.35;;
37955;SDS011;23776;51.592;7.180;2023-02-01T04:02:53;25.38;;;4.38;;
37955;SDS011;23776;51.592;7.180;2023-02-01T04:05:19;18.92;;;3.83;;
37955;SDS011;23776;51.592;7.180;2023-02-01T04:07:46;16.15;;;4.57;;
37955;SDS011;23776;51.592;7.180;2023-02-01T04:10:11;28.67;;;4.30;;
37955;SDS011;23776;51.592;7.180;2023-02-01T04:12:37;31.80;;;4.55;;
37955;SDS011;23776;51.592;7.180;2023-02-01T04:15:03;31.73;;;4.25;;
37955;SDS011;23776;51.592;7.180;2023-02-01T04:17:29;24.73;;;3.92;;
37955;SDS011;23776;51.592;7.180;2023-02-01T04:19:55;27.65;;;4.30;;
37955;SDS011;23776;51.592;7.180;2023-02-01T04:22:21;34.83;;;4.57;;
37955;SDS011;23776;51.592;7.180;2023-02-01T04:24:47;30.20;;;4.28;;
37955;SDS011;23776;51.592;7.180;2023-02-01T04:27:13;40.83;;;4.65;;
37955;SDS011;23776;51.592;7.180;2023-02-01T04:29:38;19.60;;;3.55;;
37955;SDS011;23776;51.592;7.180;2023-02-01T04:32:04;23.77;;;4.65;;
37955;SDS011;23776;51.592;7.180;2023-02-01T04:34:30;30.05;;;4.25;;
37955;SDS011;23776;51.592;7.180;2023-02-01T04:36:56;33.20;;;3.97;;
37955;SDS011;23776;51.592;7.180;2023-02-01T04:39:22;25.25;;;4.60;;
37955;SDS011;23776;51.592;7.180;2023-02-01T04:41:47;24.80;;;4.40;;
37955;SDS011;23776;51.592;7.180;2023-02-01T04:44:16;25.55;;;4.50;;
37955;SDS011;23776;51.592;7.180;2023-02-01T04:46:45;29.13;;;4.28;;
37955;SDS011;23776;51.592;7.180;2023-02-01T04:49:11;29.95;;;4.47;;
37955;SDS011;23776;51.592;7.180;2023-02-01T04:51:38;28.08;;;4.40;;
37955;SDS011;23776;51.592;7.180;2023-02-01T04:54:04;22.02;;;4.40;;
37955;SDS011;23776;51.592;7.180;2023-02-01T04:56:30;38.42;;;5.43;;
37955;SDS011;23776;51.592;7.180;2023-02-01T04:58:56;28.15;;;5.13;;
37955;SDS011;23776;51.592;7.180;2023-02-01T05:01:22;28.83;;;4.40;;
37955;SDS011;23776;51.592;7.180;2023-02-01T05:03:49;32.70;;;5.35;;
37955;SDS011;23776;51.592;7.180;2023-02-01T05:06:15;30.05;;;4.90;;
37955;SDS011;23776;51.592;7.180;2023-02-01T05:08:40;26.90;;;3.88;;
37955;SDS011;23776;51.592;7.180;2023-02-01T05:11:06;23.58;;;4.13;;
37955;SDS011;23776;51.592;7.180;2023-02-01T05:13:52;27.08;;;4.50;;
37955;SDS011;23776;51.592;7.180;2023-02-01T05:16:17;33.15;;;4.32;;
37955;SDS011;23776;51.592;7.180;2023-02-01T05:18:43;36.05;;;4.70;;
37955;SDS011;23776;51.592;7.180;2023-02-01T05:21:08;29.13;;;4.90;;
37955;SDS011;23776;51.592;7.180;2023-02-01T05:23:34;39.10;;;4.35;;
37955;SDS011;23776;51.592;7.180;2023-02-01T05:26:23;22.42;;;4.75;;
37955;SDS011;23776;51.592;7.180;2023-02-01T05:28:49;24.10;;;4.82;;
37955;SDS011;23776;51.592;7.180;2023-02-01T05:31:15;19.67;;;4.57;;
37955;SDS011;23776;51.592;7.180;2023-02-01T05:33:41;27.85;;;5.97;;
37955;SDS011;23776;51.592;7.180;2023-02-01T05:36:07;27.35;;;4.57;;
37955;SDS011;23776;51.592;7.180;2023-02-01T05:38:32;47.95;;;5.22;;
37955;SDS011;23776;51.592;7.180;2023-02-01T05:40:58;34.35;;;4.45;;
37955;SDS011;23776;51.592;7.180;2023-02-01T05:43:24;29.75;;;4.82;;
37955;SDS011;23776;51.592;7.180;2023-02-01T05:45:51;29.63;;;4.43;;
37955;SDS011;23776;51.592;7.180;2023-02-01T05:48:17;26.92;;;4.20;;
37955;SDS011;23776;51.592;7.180;2023-02-01T05:50:43;27.92;;;5.30;;
37955;SDS011;23776;51.592;7.180;2023-02-01T05:53:09;23.48;;;4.68;;
37955;SDS011;23776;51.592;7.180;2023-02-01T05:55:34;32.25;;;5.30;;
37955;SDS011;23776;51.592;7.180;2023-02-01T05:58:01;39.50;;;4.78;;
37955;SDS011;23776;51.592;7.180;2023-02-01T06:00:27;33.72;;;4.85;;
37955;SDS011;23776;51.592;7.180;2023-02-01T06:02:52;23.20;;;4.55;;
37955;SDS011;23776;51.592;7.180;2023-02-01T06:05:18;26.98;;;4.60;;
37955;SDS011;23776;51.592;7.180;2023-02-01T06:07:44;30.60;;;4.10;;
37955;SDS011;23776;51.592;7.180;2023-02-01T06:10:09;35.13;;;4.88;;
37955;SDS011;23776;51.592;7.180;2023-02-01T06:12:35;32.95;;;4.90;;
37955;SDS011;23776;51.592;7.180;2023-02-01T06:15:01;38.28;;;5.57;;
37955;SDS011;23776;51.592;7.180;2023-02-01T06:17:27;23.27;;;4.43;;
37955;SDS011;23776;51.592;7.180;2023-02-01T06:19:53;34.83;;;5.78;;
37955;SDS011;23776;51.592;7.180;2023-02-01T06:22:18;26.15;;;4.18;;
37955;SDS011;23776;51.592;7.180;2023-02-01T06:24:44;26.05;;;4.38;;
37955;SDS011;23776;51.592;7.180;2023-02-01T06:27:09;41.00;;;5.07;;
37955;SDS011;23776;51.592;7.180;2023-02-01T06:29:35;38.20;;;4.90;;
37955;SDS011;23776;51.592;7.180;2023-02-01T06:32:01;46.72;;;5.13;;
37955;SDS011;23776;51.592;7.180;2023-02-01T06:34:28;28.35;;;5.55;;
37955;SDS011;23776;51.592;7.180;2023-02-01T06:36:53;31.90;;;4.65;;
37955;SDS011;23776;51.592;7.180;2023-02-01T06:39:19;28.13;;;4.65;;
37955;SDS011;23776;51.592;7.180;2023-02-01T06:41:46;21.48;;;4.40;;
37955;SDS011;23776;51.592;7.180;2023-02-01T06:44:12;37.13;;;5.85;;
37955;SDS011;23776;51.592;7.180;2023-02-01T06:46:38;32.80;;;5.22;;
37955;SDS011;23776;51.592;7.180;2023-02-01T06:49:03;31.77;;;4.85;;
37955;SDS011;23776;51.592;7.180;2023-02-01T06:51:29;38.63;;;5.35;;
37955;SDS011;23776;51.592;7.180;2023-02-01T06:53:55;24.67;;;4.40;;
37955;SDS011;23776;51.592;7.180;2023-02-01T06:56:21;40.97;;;5.03;;
37955;SDS011;23776;51.592;7.180;2023-02-01T06:58:47;22.98;;;3.65;;
37955;SDS011;23776;51.592;7.180;2023-02-01T07:01:13;34.97;;;4.40;;
37955;SDS011;23776;51.592;7.180;2023-02-01T07:03:39;31.83;;;4.57;;
37955;SDS011;23776;51.592;7.180;2023-02-01T07:06:05;26.98;;;4.55;;
37955;SDS011;23776;51.592;7.180;2023-02-01T07:08:33;33.95;;;4.78;;
37955;SDS011;23776;51.592;7.180;2023-02-01T07:11:08;38.90;;;4.57;;
37955;SDS011;23776;51.592;7.180;2023-02-01T07:13:35;32.42;;;4.88;;
37955;SDS011;23776;51.592;7.180;2023-02-01T07:16:02;28.90;;;4.30;;
37955;SDS011;23776;51.592;7.180;2023-02-01T07:18:29;40.85;;;4.70;;
37955;SDS011;23776;51.592;7.180;2023-02-01T07:20:56;35.28;;;4.68;;
37955;SDS011;23776;51.592;7.180;2023-02-01T07:23:22;30.88;;;3.63;;
37955;SDS011;23776;51.592;7.180;2023-02-01T07:25:48;39.38;;;5.15;;
37955;SDS011;23776;51.592;7.180;2023-02-01T07:28:13;39.33;;;5.88;;
37955;SDS011;23776;51.592;7.180;2023-02-01T07:30:39;27.83;;;4.25;;
37955;SDS011;23776;51.592;7.180;2023-02-01T07:33:05;37.42;;;5.75;;
37955;SDS011;23776;51.592;7.180;2023-02-01T07:35:31;31.67;;;5.47;;
37955;SDS011;23776;51.592;7.180;2023-02-01T07:37:57;24.85;;;4.63;;
37955;SDS011;23776;51.592;7.180;2023-02-01T07:40:23;35.20;;;5.72;;
37955;SDS011;23776;51.592;7.180;2023-02-01T07:42:54;37.22;;;5.43;;
37955;SDS011;23776;51.592;7.180;2023-02-01T07:45:20;28.38;;;4.53;;
37955;SDS011;23776;51.592;7.180;2023-02-01T07:47:47;30.80;;;4.80;;
37955;SDS011;23776;51.592;7.180;2023-02-01T07:50:13;28.77;;;4.63;;
37955;SDS011;23776;51.592;7.180;2023-02-01T07:52:38;23.77;;;4.15;;
37955;SDS011;23776;51.592;7.180;2023-02-01T07:55:05;33.60;;;5.43;;
37955;SDS011;23776;51.592;7.180;2023-02-01T07:57:31;40.35;;;4.30;;
37955;SDS011;23776;51.592;7.180;2023-02-01T07:59:57;32.33;;;5.53;;
37955;SDS011;23776;51.592;7.180;2023-02-01T08:02:41;33.00;;;5.03;;
37955;SDS011;23776;51.592;7.180;2023-02-01T08:05:07;34.08;;;5.38;;
37955;SDS011;23776;51.592;7.180;2023-02-01T08:07:32;38.13;;;5.22;;
37955;SDS011;23776;51.592;7.180;2023-02-01T08:09:58;23.90;;;4.78;;
37955;SDS011;23776;51.592;7.180;2023-02-01T08:12:24;31.52;;;5.03;;
37955;SDS011;23776;51.592;7.180;2023-02-01T08:14:51;29.20;;;4.78;;
37955;SDS011;23776;51.592;7.180;2023-02-01T08:17:18;32.40;;;5.15;;
37955;SDS011;23776;51.592;7.180;2023-02-01T08:19:44;44.13;;;5.65;;
37955;SDS011;23776;51.592;7.180;2023-02-01T08:22:09;28.30;;;4.53;;
37955;SDS011;23776;51.592;7.180;2023-02-01T08:24:35;29.45;;;5.57;;
37955;SDS011;23776;51.592;7.180;2023-02-01T08:27:04;45.53;;;5.45;;
37955;SDS011;23776;51.592;7.180;2023-02-01T08:29:29;35.47;;;4.93;;
37955;SDS011;23776;51.592;7.180;2023-02-01T08:31:55;24.65;;;5.05;;
37955;SDS011;23776;51.592;7.180;2023-02-01T08:34:21;29.67;;;4.40;;
37955;SDS011;23776;51.592;7.180;2023-02-01T08:36:47;29.60;;;5.20;;
37955;SDS011;23776;51.592;7.180;2023-02-01T08:39:13;23.02;;;4.63;;
37955;SDS011;23776;51.592;7.180;2023-02-01T08:41:39;31.30;;;4.95;;
37955;SDS011;23776;51.592;7.180;2023-02-01T08:44:07;35.65;;;5.93;;
37955;SDS011;23776;51.592;7.180;2023-02-01T08:46:32;23.55;;;5.20;;
37955;SDS011;23776;51.592;7.180;2023-02-01T08:48:58;28.00;;;4.45;;
37955;SDS011;23776;51.592;7.180;2023-02-01T08:51:24;35.78;;;5.72;;
37955;SDS011;23776;51.592;7.180;2023-02-01T08:53:49;43.50;;;5.90;;
37955;SDS011;23776;51.592;7.180;2023-02-01T08:56:16;27.77;;;6.10;;
37955;SDS011;23776;51.592;7.180;2023-02-01T08:58:43;28.80;;;5.25;;
37955;SDS011;23776;51.592;7.180;2023-02-01T09:01:10;36.35;;;5.45;;
37955;SDS011;23776;51.592;7.180;2023-02-01T09:03:38;32.90;;;5.60;;
37955;SDS011;23776;51.592;7.180;2023-02-01T09:06:04;35.67;;;4.70;;
37955;SDS011;23776;51.592;7.180;2023-02-01T09:08:32;31.50;;;5.30;;
37955;SDS011;23776;51.592;7.180;2023-02-01T09:10:59;30.15;;;6.20;;
37955;SDS011;23776;51.592;7.180;2023-02-01T09:13:29;39.97;;;7.38;;
37955;SDS011;23776;51.592;7.180;2023-02-01T09:15:55;32.75;;;7.22;;
37955;SDS011;23776;51.592;7.180;2023-02-01T09:18:22;42.28;;;5.28;;
37955;SDS011;23776;51.592;7.180;2023-02-01T09:20:47;27.75;;;5.57;;
37955;SDS011;23776;51.592;7.180;2023-02-01T09:23:13;33.47;;;5.60;;
37955;SDS011;23776;51.592;7.180;2023-02-01T09:25:39;27.15;;;5.05;;
37955;SDS011;23776;51.592;7.180;2023-02-01T09:28:05;36.63;;;6.78;;
37955;SDS011;23776;51.592;7.180;2023-02-01T09:30:31;43.15;;;6.15;;
37955;SDS011;23776;51.592;7.180;2023-02-01T09:32:58;31.52;;;6.75;;
37955;SDS011;23776;51.592;7.180;2023-02-01T09:35:24;47.67;;;9.68;;
37955;SDS011;23776;51.592;7.180;2023-02-01T09:37:50;31.60;;;5.68;;
37955;SDS011;23776;51.592;7.180;2023-02-01T09:40:18;37.92;;;6.68;;
37955;SDS011;23776;51.592;7.180;2023-02-01T09:42:54;42.63;;;5.30;;
37955;SDS011;23776;51.592;7.180;2023-02-01T09:45:34;20.20;;;4.93;;
37955;SDS011;23776;51.592;7.180;2023-02-01T09:48:04;34.17;;;6.45;;
37955;SDS011;23776;51.592;7.180;2023-02-01T09:50:42;34.28;;;5.40;;
37955;SDS011;23776;51.592;7.180;2023-02-01T09:56:00;37.65;;;6.07;;
37955;SDS011;23776;51.592;7.180;2023-02-01T10:01:19;37.30;;;5.90;;
37955;SDS011;23776;51.592;7.180;2023-02-01T10:03:47;30.90;;;5.60;;
37955;SDS011;23776;51.592;7.180;2023-02-01T10:28:15;25.65;;;5.30;;
37955;SDS011;23776;51.592;7.180;2023-02-01T10:30:43;30.75;;;6.10;;
37955;SDS011;23776;51.592;7.180;2023-02-01T10:39:03;33.17;;;4.90;;
37955;SDS011;23776;51.592;7.180;2023-02-01T10:41:32;34.13;;;5.80;;
37955;SDS011;23776;51.592;7.180;2023-02-01T10:44:00;42.97;;;6.28;;
37955;SDS011;23776;51.592;7.180;2023-02-01T10:46:30;33.63;;;5.60;;
37955;SDS011;23776;51.592;7.180;2023-02-01T10:48:56;31.90;;;5.32;;
37955;SDS011;23776;51.592;7.180;2023-02-01T10:51:30;36.88;;;5.95;;
37955;SDS011;23776;51.592;7.180;2023-02-01T10:54:18;28.58;;;5.50;;
37955;SDS011;23776;51.592;7.180;2023-02-01T10:56:56;29.48;;;5.28;;
37955;SDS011;23776;51.592;7.180;2023-02-01T10:59:25;30.35;;;5.43;;
37955;SDS011;23776;51.592;7.180;2023-02-01T11:02:00;30.20;;;6.03;;
37955;SDS011;23776;51.592;7.180;2023-02-01T11:04:27;25.52;;;5.85;;
37955;SDS011;23776;51.592;7.180;2023-02-01T11:07:06;29.05;;;5.72;;
37955;SDS011;23776;51.592;7.180;2023-02-01T11:09:49;27.73;;;5.65;;
37955;SDS011;23776;51.592;7.180;2023-02-01T11:14:57;26.85;;;5.75;;
37955;SDS011;23776;51.592;7.180;2023-02-01T11:17:27;24.67;;;5.57;;
37955;SDS011;23776;51.592;7.180;2023-02-01T11:19:58;23.63;;;5.03;;
37955;SDS011;23776;51.592;7.180;2023-02-01T11:22:26;20.25;;;4.72;;
37955;SDS011;23776;51.592;7.180;2023-02-01T11:24:54;27.00;;;5.07;;
37955;SDS011;23776;51.592;7.180;2023-02-01T11:27:20;22.73;;;4.40;;
37955;SDS011;23776;51.592;7.180;2023-02-01T11:29:52;30.88;;;5.13;;
37955;SDS011;23776;51.592;7.180;2023-02-01T11:32:21;34.05;;;5.85;;
37955;SDS011;23776;51.592;7.180;2023-02-01T11:34:53;23.08;;;5.00;;
37955;SDS011;23776;51.592;7.180;2023-02-01T11:37:39;35.00;;;5.13;;
37955;SDS011;23776;51.592;7.180;2023-02-01T11:45:41;38.35;;;6.50;;
37955;SDS011;23776;51.592;7.180;2023-02-01T11:48:18;25.75;;;4.53;;
37955;SDS011;23776;51.592;7.180;2023-02-01T12:01:58;27.88;;;5.10;;
37955;SDS011;23776;51.592;7.180;2023-02-01T12:08:07;37.17;;;7.65;;
37955;SDS011;23776;51.592;7.180;2023-02-01T12:14:11;18.83;;;5.10;;
37955;SDS011;23776;51.592;7.180;2023-02-01T12:16:46;31.08;;;5.53;;
37955;SDS011;23776;51.592;7.180;2023-02-01T12:19:28;28.30;;;5.32;;
37955;SDS011;23776;51.592;7.180;2023-02-01T12:22:18;38.08;;;6.97;;
37955;SDS011;23776;51.592;7.180;2023-02-01T12:33:05;40.05;;;5.82;;
37955;SDS011;23776;51.592;7.180;2023-02-01T12:43:12;26.08;;;4.28;;
37955;SDS011;23776;51.592;7.180;2023-02-01T12:45:49;29.08;;;4.15;;
37955;SDS011;23776;51.592;7.180;2023-02-01T12:50:53;28.02;;;5.20;;
37955;SDS011;23776;51.592;7.180;2023-02-01T12:56:22;25.00;;;5.72;;
37955;SDS011;23776;51.592;7.180;2023-02-01T12:58:53;37.10;;;4.90;;
37955;SDS011;23776;51.592;7.180;2023-02-01T13:04:12;26.25;;;4.22;;
37955;SDS011;23776;51.592;7.180;2023-02-01T13:06:55;26.67;;;4.32;;
37955;SDS011;23776;51.592;7.180;2023-02-01T13:09:57;19.20;;;3.83;;
37955;SDS011;23776;51.592;7.180;2023-02-01T13:12:41;22.38;;;5.05;;
37955;SDS011;23776;51.592;7.180;2023-02-01T13:15:28;27.73;;;5.43;;
37955;SDS011;23776;51.592;7.180;2023-02-01T13:17:58;22.60;;;4.18;;
37955;SDS011;23776;51.592;7.180;2023-02-01T13:20:31;25.33;;;4.45;;
37955;SDS011;23776;51.592;7.180;2023-02-01T13:28:21;24.38;;;3.78;;
37955;SDS011;23776;51.592;7.180;2023-02-01T13:31:17;20.63;;;4.90;;
37955;SDS011;23776;51.592;7.180;2023-02-01T13:42:45;22.15;;;3.83;;
37955;SDS011;23776;51.592;7.180;2023-02-01T13:47:52;16.60;;;3.97;;
37955;SDS011;23776;51.592;7.180;2023-02-01T13:50:24;33.90;;;5.13;;
37955;SDS011;23776;51.592;7.180;2023-02-01T13:55:37;23.42;;;3.88;;
37955;SDS011;23776;51.592;7.180;2023-02-01T14:00:31;36.28;;;4.25;;
37955;SDS011;23776;51.592;7.180;2023-02-01T14:23:47;16.33;;;3.30;;
37955;SDS011;23776;51.592;7.180;2023-02-01T14:26:24;28.85;;;4.63;;
37955;SDS011;23776;51.592;7.180;2023-02-01T14:29:55;27.20;;;3.92;;
37955;SDS011;23776;51.592;7.180;2023-02-01T14:32:02;29.10;;;4.28;;
37955;SDS011;23776;51.592;7.180;2023-02-01T14:53:09;20.92;;;3.67;;
37955;SDS011;23776;51.592;7.180;2023-02-01T15:00:52;29.98;;;4.03;;
37955;SDS011;23776;51.592;7.180;2023-02-01T15:05:55;29.42;;;3.83;;
37955;SDS011;23776;51.592;7.180;2023-02-01T15:08:26;29.77;;;4.43;;
37955;SDS011;23776;51.592;7.180;2023-02-01T15:10:55;19.88;;;3.38;;
37955;SDS011;23776;51.592;7.180;2023-02-01T15:13:26;30.23;;;4.20;;
37955;SDS011;23776;51.592;7.180;2023-02-01T15:16:09;30.55;;;4.28;;
37955;SDS011;23776;51.592;7.180;2023-02-01T15:18:36;31.80;;;5.63;;
37955;SDS011;23776;51.592;7.180;2023-02-01T15:21:03;22.92;;;3.60;;
37955;SDS011;23776;51.592;7.180;2023-02-01T15:23:31;24.30;;;5.00;;
37955;SDS011;23776;51.592;7.180;2023-02-01T15:25:57;37.40;;;4.95;;
37955;SDS011;23776;51.592;7.180;2023-02-01T15:28:24;14.75;;;3.25;;
37955;SDS011;23776;51.592;7.180;2023-02-01T15:31:01;34.17;;;5.30;;
37955;SDS011;23776;51.592;7.180;2023-02-01T15:33:28;30.08;;;4.20;;
37955;SDS011;23776;51.592;7.180;2023-02-01T15:36:07;37.95;;;4.93;;
37955;SDS011;23776;51.592;7.180;2023-02-01T15:38:40;20.92;;;4.05;;
37955;SDS011;23776;51.592;7.180;2023-02-01T15:41:19;20.30;;;4.13;;
37955;SDS011;23776;51.592;7.180;2023-02-01T15:43:49;27.35;;;4.38;;
37955;SDS011;23776;51.592;7.180;2023-02-01T15:46:30;22.80;;;4.40;;
37955;SDS011;23776;51.592;7.180;2023-02-01T15:48:58;24.73;;;4.55;;
37955;SDS011;23776;51.592;7.180;2023-02-01T15:51:25;30.58;;;4.22;;
37955;SDS011;23776;51.592;7.180;2023-02-01T15:53:55;23.63;;;3.90;;
37955;SDS011;23776;51.592;7.180;2023-02-01T15:56:36;18.35;;;4.22;;
37955;SDS011;23776;51.592;7.180;2023-02-01T15:59:04;23.63;;;4.50;;
37955;SDS011;23776;51.592;7.180;2023-02-01T16:01:37;23.77;;;4.75;;
37955;SDS011;23776;51.592;7.180;2023-02-01T16:06:52;34.17;;;4.97;;
37955;SDS011;23776;51.592;7.180;2023-02-01T16:09:20;29.38;;;4.43;;
37955;SDS011;23776;51.592;7.180;2023-02-01T16:11:52;28.95;;;4.30;;
37955;SDS011;23776;51.592;7.180;2023-02-01T16:14:19;22.00;;;4.85;;
37955;SDS011;23776;51.592;7.180;2023-02-01T16:16:45;28.52;;;5.05;;
37955;SDS011;23776;51.592;7.180;2023-02-01T16:19:11;19.50;;;4.03;;
37955;SDS011;23776;51.592;7.180;2023-02-01T16:21:36;27.63;;;4.35;;
37955;SDS011;23776;51.592;7.180;2023-02-01T16:24:02;40.85;;;6.43;;
37955;SDS011;23776;51.592;7.180;2023-02-01T16:26:29;22.60;;;4.72;;
37955;SDS011;23776;51.592;7.180;2023-02-01T16:28:56;20.80;;;4.55;;
37955;SDS011;23776;51.592;7.180;2023-02-01T16:31:24;27.08;;;4.43;;
37955;SDS011;23776;51.592;7.180;2023-02-01T16:33:53;29.50;;;5.32;;
37955;SDS011;23776;51.592;7.180;2023-02-01T16:36:19;22.50;;;5.03;;
37955;SDS011;23776;51.592;7.180;2023-02-01T16:38:45;39.40;;;7.43;;
37955;SDS011;23776;51.592;7.180;2023-02-01T16:41:13;28.65;;;5.93;;
37955;SDS011;23776;51.592;7.180;2023-02-01T16:43:39;30.55;;;6.70;;
37955;SDS011;23776;51.592;7.180;2023-02-01T16:46:05;26.95;;;7.55;;
37955;SDS011;23776;51.592;7.180;2023-02-01T16:48:57;33.90;;;6.50;;
37955;SDS011;23776;51.592;7.180;2023-02-01T16:51:24;28.25;;;7.25;;
37955;SDS011;23776;51.592;7.180;2023-02-01T16:53:51;38.20;;;6.03;;
37955;SDS011;23776;51.592;7.180;2023-02-01T16:56:19;26.48;;;6.53;;
37955;SDS011;23776;51.592;7.180;2023-02-01T16:58:49;18.45;;;4.45;;
37955;SDS011;23776;51.592;7.180;2023-02-01T17:01:17;16.08;;;3.22;;
37955;SDS011;23776;51.592;7.180;2023-02-01T17:03:43;9.02;;;1.90;;
37955;SDS011;23776;51.592;7.180;2023-02-01T17:06:10;10.13;;;3.20;;
37955;SDS011;23776;51.592;7.180;2023-02-01T17:08:40;12.63;;;2.20;;
37955;SDS011;23776;51.592;7.180;2023-02-01T17:11:09;12.32;;;2.10;;
37955;SDS011;23776;51.592;7.180;2023-02-01T17:13:37;14.35;;;2.42;;
37955;SDS011;23776;51.592;7.180;2023-02-01T17:16:09;8.07;;;1.95;;
37955;SDS011;23776;51.592;7.180;2023-02-01T17:18:46;11.90;;;3.08;;
37955;SDS011;23776;51.592;7.180;2023-02-01T17:21:26;14.77;;;2.75;;
37955;SDS011;23776;51.592;7.180;2023-02-01T17:23:54;13.07;;;3.22;;
37955;SDS011;23776;51.592;7.180;2023-02-01T17:26:20;11.52;;;3.17;;
37955;SDS011;23776;51.592;7.180;2023-02-01T17:28:46;16.13;;;3.53;;
37955;SDS011;23776;51.592;7.180;2023-02-01T17:31:12;11.63;;;2.88;;
37955;SDS011;23776;51.592;7.180;2023-02-01T17:33:39;17.10;;;3.42;;
37955;SDS011;23776;51.592;7.180;2023-02-01T17:36:05;16.02;;;4.30;;
37955;SDS011;23776;51.592;7.180;2023-02-01T17:38:35;12.20;;;3.78;;
37955;SDS011;23776;51.592;7.180;2023-02-01T17:41:01;16.17;;;4.28;;
37955;SDS011;23776;51.592;7.180;2023-02-01T17:43:26;11.85;;;4.40;;
37955;SDS011;23776;51.592;7.180;2023-02-01T17:45:53;17.63;;;4.90;;
37955;SDS011;23776;51.592;7.180;2023-02-01T17:48:22;18.90;;;4.72;;
37955;SDS011;23776;51.592;7.180;2023-02-01T17:50:49;16.58;;;4.85;;
37955;SDS011;23776;51.592;7.180;2023-02-01T17:53:18;11.95;;;4.72;;
37955;SDS011;23776;51.592;7.180;2023-02-01T17:55:48;17.52;;;5.03;;
37955;SDS011;23776;51.592;7.180;2023-02-01T17:58:15;15.70;;;5.80;;